Time;durP1;ratioP1;P1;durP2;ratioP2;P2;SDS_P1;SDS_P2;PMS_P1;PMS_P2;Temp;Humidity;BMP_temperature;BMP_pressure;BME280_temperature;BME280_humidity;BME280_pressure;Samples;Min_cycle;Max_cycle;Signal;HPM_P1;HPM_P2
2021/08/21 00:01:34;;;;;;;7.60;3.90;;;;;;;15.28;94.56;98969.50;5045155;28;20086;-67
2021/08/21 00:03:59;;;;;;;8.93;3.40;;;;;;;15.31;94.52;98970.25;5051384;28;20064;-67
2021/08/21 00:06:25;;;;;;;8.18;4.00;;;;;;;15.33;94.54;98968.41;5044607;28;20041;-67
2021/08/21 00:08:51;;;;;;;9.32;4.00;;;;;;;15.25;94.75;98965.13;5063306;28;20047;-67
2021/08/21 00:11:16;;;;;;;7.43;3.80;;;;;;;15.20;94.05;98972.38;5063309;28;20052;-67
2021/08/21 00:13:42;;;;;;;7.13;4.03;;;;;;;15.13;94.49;98976.16;5049389;28;20283;-67
2021/08/21 00:16:07;;;;;;;5.28;3.70;;;;;;;15.17;94.32;98972.50;5053941;28;20247;-67
2021/08/21 00:18:33;;;;;;;8.38;3.40;;;;;;;14.92;94.52;98971.53;5045030;28;20080;-67
2021/08/21 00:20:59;;;;;;;5.95;3.85;;;;;;;14.86;94.82;98982.31;5059474;28;20239;-67
2021/08/21 00:23:24;;;;;;;6.82;4.00;;;;;;;14.86;95.16;98987.63;5060969;28;20021;-67
2021/08/21 00:25:49;;;;;;;8.18;3.63;;;;;;;14.79;95.31;98991.38;5049042;28;20109;-67
2021/08/21 00:28:15;;;;;;;6.60;4.30;;;;;;;14.79;96.12;99001.97;5059307;28;20092;-67
2021/08/21 00:30:40;;;;;;;10.90;3.92;;;;;;;14.72;95.62;98995.13;5060387;28;20124;-67
2021/08/21 00:33:06;;;;;;;5.03;3.75;;;;;;;14.72;95.81;99000.44;5047731;28;20037;-67
2021/08/21 00:35:32;;;;;;;5.55;3.80;;;;;;;14.71;96.00;98972.19;5058388;28;20071;-67
2021/08/21 00:37:57;;;;;;;5.15;3.42;;;;;;;14.64;95.22;98981.22;5051334;28;20017;-67
2021/08/21 00:40:22;;;;;;;5.65;3.63;;;;;;;14.68;94.94;98983.75;5053951;28;20017;-67
2021/08/21 00:42:51;;;;;;;15.80;3.90;;;;;;;14.53;94.87;98978.06;5049436;28;20024;-67
2021/08/21 00:45:16;;;;;;;12.30;3.92;;;;;;;14.52;94.70;98997.47;5048084;28;20025;-67
2021/08/21 00:47:42;;;;;;;7.60;3.63;;;;;;;14.56;94.67;98991.22;5047519;28;20093;-67
2021/08/21 00:50:08;;;;;;;7.53;3.40;;;;;;;14.44;93.87;98994.22;5058630;28;20235;-67
2021/08/21 00:52:34;;;;;;;8.25;3.80;;;;;;;14.36;93.68;98980.31;5062372;28;20021;-67
2021/08/21 00:55:00;;;;;;;4.40;3.03;;;;;;;14.37;94.01;98987.34;5064438;28;20304;-67
2021/08/21 00:57:27;;;;;;;7.70;3.40;;;;;;;14.41;93.89;98962.50;5047381;28;20079;-67
2021/08/21 00:59:53;;;;;;;5.57;2.75;;;;;;;14.17;93.21;98979.06;5062417;28;20018;-67
2021/08/21 01:02:20;;;;;;;4.65;2.60;;;;;;;14.17;93.64;98979.06;5065480;28;20041;-67
2021/08/21 01:04:48;;;;;;;3.67;2.58;;;;;;;14.24;93.67;98978.03;5058994;28;20028;-67
2021/08/21 01:07:19;;;;;;;4.22;3.00;;;;;;;14.15;93.99;98991.50;5048814;28;20108;-67
2021/08/21 01:09:45;;;;;;;7.53;2.95;;;;;;;14.18;94.14;99002.00;5047357;28;20017;-67
2021/08/21 01:12:12;;;;;;;4.57;3.08;;;;;;;14.15;94.15;99007.38;5059963;28;20020;-67
2021/08/21 01:14:37;;;;;;;19.20;3.90;;;;;;;14.06;93.96;99005.84;5051658;28;20020;-67
2021/08/21 01:17:04;;;;;;;4.95;3.20;;;;;;;13.91;93.69;98992.13;5054710;28;20091;-67
2021/08/21 01:19:32;;;;;;;4.88;3.05;;;;;;;13.86;94.10;99005.50;5048149;28;20025;-67
2021/08/21 01:21:58;;;;;;;4.60;3.20;;;;;;;13.78;94.22;99001.31;5046978;28;20021;-67
2021/08/21 01:24:23;;;;;;;7.25;3.28;;;;;;;13.79;94.36;99008.38;5057463;28;20268;-67
2021/08/21 01:26:54;;;;;;;8.98;2.97;;;;;;;13.72;94.70;99012.06;5046834;28;20328;-67
2021/08/21 01:29:19;;;;;;;6.53;3.85;;;;;;;13.74;94.52;99020.84;5046727;28;20049;-67
2021/08/21 01:31:46;;;;;;;11.57;3.80;;;;;;;13.75;94.93;99011.97;5046648;28;20220;-67
2021/08/21 01:34:11;;;;;;;6.47;3.55;;;;;;;13.73;94.82;99024.41;5050275;28;20029;-67
2021/08/21 01:36:42;;;;;;;4.70;3.50;;;;;;;13.78;95.03;99012.78;5046686;28;20031;-67
2021/08/21 01:39:08;;;;;;;4.35;3.33;;;;;;;13.84;94.15;99032.91;5052161;28;20044;-67
2021/08/21 01:41:34;;;;;;;6.90;2.90;;;;;;;13.79;94.46;99018.94;5045616;28;20067;-67
2021/08/21 01:43:59;;;;;;;7.32;2.65;;;;;;;13.66;94.45;99006.91;5049899;28;20287;-67
2021/08/21 01:46:25;;;;;;;3.42;2.75;;;;;;;13.64;94.01;99021.97;5046473;28;20017;-67
2021/08/21 01:48:50;;;;;;;6.07;2.88;;;;;;;13.68;94.64;99026.28;5053402;28;20037;-67
2021/08/21 01:51:16;;;;;;;4.95;2.75;;;;;;;13.78;94.28;99027.78;5046977;28;20272;-67
2021/08/21 01:53:41;;;;;;;7.53;2.72;;;;;;;13.64;94.56;99019.34;5053228;28;20092;-67
2021/08/21 01:56:08;;;;;;;3.83;2.42;;;;;;;13.58;94.11;99030.06;5045542;28;20047;-67
2021/08/21 01:58:33;;;;;;;5.78;3.50;;;;;;;13.63;94.36;99013.16;5046237;28;20216;-67
2021/08/21 02:00:59;;;;;;;6.25;3.60;;;;;;;13.65;94.75;99031.66;5046178;28;20032;-67
2021/08/21 02:03:25;;;;;;;5.43;3.50;;;;;;;13.70;94.78;99040.34;5048638;28;20037;-67
2021/08/21 02:05:51;;;;;;;3.83;3.00;;;;;;;13.76;94.86;99037.53;5046106;28;20262;-67
2021/08/21 02:08:17;;;;;;;4.25;3.03;;;;;;;13.80;94.16;99036.56;5063380;28;20033;-67
2021/08/21 02:10:43;;;;;;;8.27;2.58;;;;;;;13.66;93.73;99054.53;5046332;28;20022;-67
2021/08/21 02:13:08;;;;;;;2.95;2.45;;;;;;;13.67;93.70;99035.13;5048097;28;20030;-67
2021/08/21 02:15:34;;;;;;;2.90;2.35;;;;;;;13.58;93.42;99019.50;5059609;28;20131;-67
2021/08/21 02:17:59;;;;;;;2.88;2.17;;;;;;;13.46;93.66;99035.66;5065322;28;20013;-67
2021/08/21 02:20:25;;;;;;;4.90;2.85;;;;;;;13.44;94.04;99040.97;5064631;28;20056;-67
2021/08/21 02:22:51;;;;;;;3.80;2.67;;;;;;;13.53;94.16;99037.22;5048445;28;20028;-67
2021/08/21 02:25:17;;;;;;;4.45;2.20;;;;;;;13.38;94.12;99035.00;5045731;28;20315;-67
2021/08/21 02:27:56;;;;;;;4.03;2.55;;;;;;;13.31;94.18;99030.72;5044453;28;20029;-67
2021/08/21 02:30:21;;;;;;;4.43;3.00;;;;;;;13.41;94.36;99042.84;5045872;28;20021;-67
2021/08/21 02:32:46;;;;;;;2.97;2.40;;;;;;;13.37;94.54;99046.44;5049201;28;20189;-67
2021/08/21 02:35:12;;;;;;;4.40;2.67;;;;;;;13.36;94.29;99050.00;5045598;28;20022;-67
2021/08/21 02:37:37;;;;;;;5.25;3.00;;;;;;;13.30;93.79;99044.84;5045565;28;20084;-67
2021/08/21 02:40:04;;;;;;;3.72;2.47;;;;;;;13.26;93.98;99037.91;5057658;28;20028;-67
2021/08/21 02:42:30;;;;;;;4.30;2.55;;;;;;;13.20;94.26;99031.00;5058357;28;20017;-67
2021/08/21 02:44:55;;;;;;;8.40;3.10;;;;;;;13.28;94.12;99044.00;5058745;28;20220;-67
2021/08/21 02:47:20;;;;;;;4.35;3.00;;;;;;;13.35;94.11;99027.13;5045354;28;20205;-67
2021/08/21 02:49:46;;;;;;;3.88;2.85;;;;;;;13.29;94.02;99082.78;5045319;28;20018;-67
2021/08/21 02:52:11;;;;;;;3.97;2.67;;;;;;;13.31;94.13;99021.03;5045067;28;20025;-67
2021/08/21 02:54:37;;;;;;;4.45;2.95;;;;;;;13.33;93.88;99018.34;5049085;28;20216;-67
2021/08/21 02:57:02;;;;;;;4.13;2.78;;;;;;;13.25;94.41;99026.47;5052235;28;20028;-67
2021/08/21 02:59:27;;;;;;;6.75;2.80;;;;;;;13.14;94.25;98995.91;5064556;28;20297;-67
2021/08/21 03:01:53;;;;;;;5.30;3.13;;;;;;;13.15;94.63;98993.22;5062890;28;20033;-67
2021/08/21 03:04:18;;;;;;;4.40;2.85;;;;;;;13.20;94.51;99006.34;5055763;28;20027;-67
2021/08/21 03:06:44;;;;;;;5.03;2.97;;;;;;;13.12;94.36;99016.19;5064394;28;20312;-67
2021/08/21 03:09:09;;;;;;;7.28;2.60;;;;;;;13.21;94.49;99013.34;5062161;28;20380;-67
2021/08/21 03:11:35;;;;;;;4.80;2.92;;;;;;;13.18;94.44;99026.63;5060253;28;20048;-67
2021/08/21 03:14:00;;;;;;;5.63;2.70;;;;;;;13.26;94.20;99011.47;5044896;28;20084;-67
2021/08/21 03:16:26;;;;;;;10.27;2.42;;;;;;;13.20;94.64;99049.50;5061600;28;20021;-67
2021/08/21 03:18:51;;;;;;;6.15;3.47;;;;;;;13.26;94.66;99059.06;5064176;28;20009;-67
2021/08/21 03:21:17;;;;;;;6.88;2.80;;;;;;;13.30;94.49;99061.59;5060909;28;20288;-67
2021/08/21 03:23:43;;;;;;;4.05;2.65;;;;;;;13.27;94.21;99060.78;5052469;28;20017;-67
2021/08/21 03:26:08;;;;;;;3.13;2.60;;;;;;;13.22;93.72;99041.53;5043509;28;20021;-67
2021/08/21 03:28:34;;;;;;;3.58;2.72;;;;;;;13.13;94.13;99086.69;5053503;28;20257;-67
2021/08/21 03:30:59;;;;;;;8.32;3.10;;;;;;;13.15;94.27;99124.50;5050014;28;20021;-67
2021/08/21 03:33:25;;;;;;;5.78;3.33;;;;;;;13.15;94.08;99140.34;5045010;28;20045;-67
2021/08/21 03:35:51;;;;;;;7.18;2.95;;;;;;;13.16;94.28;99107.75;5044806;28;20249;-67
2021/08/21 03:38:17;;;;;;;5.25;3.03;;;;;;;13.07;94.38;99107.03;5044416;28;20092;-67
2021/08/21 03:40:42;;;;;;;5.93;2.97;;;;;;;13.16;94.58;99115.69;5048084;28;20052;-67
2021/08/21 03:43:08;;;;;;;5.72;3.25;;;;;;;13.04;94.51;99104.47;5063728;28;20028;-67
2021/08/21 03:45:33;;;;;;;8.63;3.40;;;;;;;13.07;94.86;99158.16;5063707;28;20016;-67
2021/08/21 03:47:59;;;;;;;6.43;3.83;;;;;;;13.10;94.81;99113.19;5044709;28;20070;-67
2021/08/21 03:50:24;;;;;;;3.13;2.30;;;;;;;12.95;94.50;99154.81;5049559;28;20020;-67
2021/08/21 03:52:50;;;;;;;3.75;2.30;;;;;;;12.94;94.49;99158.38;5048543;28;20020;-67
2021/08/21 03:55:15;;;;;;;3.58;2.78;;;;;;;12.90;94.72;99162.00;5064139;28;20017;-67
2021/08/21 03:57:41;;;;;;;6.50;2.70;;;;;;;12.91;94.68;99197.22;5051635;28;20201;-67
2021/08/21 04:00:07;;;;;;;4.97;3.10;;;;;;;12.97;94.80;99205.88;5051493;28;20028;-67
2021/08/21 04:02:33;;;;;;;5.20;3.22;;;;;;;13.02;94.91;99203.19;5046029;28;20079;-67
2021/08/21 04:04:58;;;;;;;6.78;3.42;;;;;;;12.99;94.74;99246.41;5056003;28;20213;-67
2021/08/21 04:07:24;;;;;;;7.93;3.20;;;;;;;12.91;94.42;99211.28;5063315;28;20088;-67
2021/08/21 04:09:49;;;;;;;3.97;2.97;;;;;;;13.01;94.42;99228.72;5058901;28;20085;-67
2021/08/21 04:12:16;;;;;;;9.10;3.38;;;;;;;12.94;94.00;99187.44;5063381;28;20316;-67
2021/08/21 04:14:42;;;;;;;8.02;3.85;;;;;;;12.88;93.95;99203.41;5053242;28;20017;-67
2021/08/21 04:17:07;;;;;;;12.07;3.53;;;;;;;12.83;94.35;99244.91;5063218;28;20094;-67
2021/08/21 04:19:33;;;;;;;4.95;3.45;;;;;;;12.85;94.87;99245.75;5049618;28;20051;-67
2021/08/21 04:21:58;;;;;;;4.50;3.10;;;;;;;12.79;94.63;99266.97;5061191;28;20039;-67
2021/08/21 04:24:24;;;;;;;9.80;3.15;;;;;;;12.76;93.70;99259.13;5057153;28;20086;-67
2021/08/21 04:26:49;;;;;;;4.57;3.20;;;;;;;12.83;94.09;99239.63;5063264;28;20260;-67
2021/08/21 04:29:14;;;;;;;4.50;3.08;;;;;;;12.83;94.24;99213.22;5062606;28;20031;-67
2021/08/21 04:31:40;;;;;;;4.28;2.65;;;;;;;12.75;93.72;99223.03;5044150;28;20211;-67
2021/08/21 04:34:05;;;;;;;4.15;2.75;;;;;;;12.75;93.84;99228.31;5059937;28;20025;-67
2021/08/21 04:36:31;;;;;;;6.35;2.83;;;;;;;12.76;93.49;99211.56;5063128;28;20016;-67
2021/08/21 04:38:56;;;;;;;6.05;3.13;;;;;;;12.79;93.70;99216.78;5063107;28;20017;-67
2021/08/21 04:41:22;;;;;;;7.30;2.85;;;;;;;12.85;93.49;99137.44;5052711;28;20032;-67
2021/08/21 04:43:47;;;;;;;4.90;3.60;;;;;;;12.90;93.85;99106.50;5055622;28;20328;-67
2021/08/21 04:46:13;;;;;;;6.10;2.78;;;;;;;12.84;93.34;99185.88;5055081;28;20020;-67
2021/08/21 04:48:38;;;;;;;5.55;2.85;;;;;;;12.73;93.60;99179.97;5062696;28;20032;-67
2021/08/21 04:51:03;;;;;;;3.90;2.83;;;;;;;12.67;93.82;99158.06;5054892;28;20338;-67
2021/08/21 04:53:29;;;;;;;4.20;2.60;;;;;;;12.64;93.47;99143.16;5051288;28;20052;-67
2021/08/21 04:55:54;;;;;;;3.40;2.53;;;;;;;12.68;93.60;99218.78;5051696;28;20017;-67
2021/08/21 04:58:20;;;;;;;3.88;2.65;;;;;;;12.77;93.10;99171.06;5044625;28;20052;-67
2021/08/21 05:00:45;;;;;;;5.55;2.95;;;;;;;12.85;93.13;99248.38;5048373;28;20200;-67
2021/08/21 05:03:10;;;;;;;8.05;3.53;;;;;;;12.72;93.11;99252.16;5060305;28;20045;-67
2021/08/21 05:05:37;;;;;;;7.80;2.97;;;;;;;12.82;93.16;99269.56;5062607;28;20017;-67
2021/08/21 05:08:02;;;;;;;4.05;2.63;;;;;;;12.84;93.30;99302.13;5047679;28;20072;-67
2021/08/21 05:10:28;;;;;;;4.78;2.85;;;;;;;12.93;92.95;99225.34;5051561;28;20092;-67
2021/08/21 05:12:53;;;;;;;5.65;2.55;;;;;;;12.94;92.85;99295.78;5053780;28;20035;-67
2021/08/21 05:15:19;;;;;;;6.60;2.97;;;;;;;12.87;93.08;99275.66;5052666;28;20017;-67
2021/08/21 05:17:46;;;;;;;5.25;2.47;;;;;;;12.96;92.49;99222.66;5049992;28;20016;-67
2021/08/21 05:20:25;;;;;;;3.30;2.58;;;;;;;13.13;92.87;99128.97;5051566;28;20021;-67
2021/08/21 05:23:04;;;;;;;4.68;2.40;;;;;;;13.28;92.28;99181.47;5053972;28;20045;-67
2021/08/21 05:25:30;;;;;;;3.30;2.33;;;;;;;13.40;93.58;98747.59;5051565;28;20351;-67
2021/08/21 05:27:56;;;;;;;3.83;2.65;;;;;;;13.49;91.91;99403.19;5052257;28;20021;-67
2021/08/21 05:30:27;;;;;;;5.00;2.40;;;;;;;13.54;91.61;98959.66;5051215;28;20039;-67
2021/08/21 05:32:53;;;;;;;3.00;1.80;;;;;;;13.77;91.29;99131.88;5059501;28;20079;-67
2021/08/21 05:35:18;;;;;;;2.78;2.08;;;;;;;14.01;90.58;98993.63;5057252;28;20259;-66
2021/08/21 05:37:43;;;;;;;2.90;2.20;;;;;;;14.66;87.92;98937.03;5051930;28;20039;-66
2021/08/21 05:40:10;;;;;;;1.95;1.70;;;;;;;14.95;85.40;98958.19;5058894;28;20056;-67
2021/08/21 05:42:35;;;;;;;3.45;2.20;;;;;;;14.78;85.37;98873.06;5053806;28;20350;-67
2021/08/21 05:45:00;;;;;;;2.97;2.00;;;;;;;14.60;86.25;98984.91;5053990;28;20025;-67
2021/08/21 05:47:26;;;;;;;2.97;2.10;;;;;;;14.84;86.54;98941.75;5053092;28;20088;-67
2021/08/21 05:49:51;;;;;;;2.80;2.05;;;;;;;15.24;85.86;98931.59;5059919;28;20028;-68
2021/08/21 05:52:16;;;;;;;3.42;1.85;;;;;;;15.75;84.04;98886.53;5052459;28;20021;-68
2021/08/21 05:54:42;;;;;;;2.22;1.80;;;;;;;16.31;82.36;99021.63;5059470;28;20036;-67
2021/08/21 05:57:07;;;;;;;5.32;1.75;;;;;;;16.96;79.57;98985.47;5057419;28;20244;-67
2021/08/21 05:59:33;;;;;;;5.32;2.20;;;;;;;17.12;78.58;98989.25;5051106;28;20087;-66
2021/08/21 06:01:59;;;;;;;2.15;1.80;;;;;;;17.63;78.16;99446.00;5056723;28;20025;-66
2021/08/21 06:04:25;;;;;;;5.65;1.77;;;;;;;18.16;75.79;99143.88;5055703;28;20040;-67
2021/08/21 06:06:50;;;;;;;4.25;2.33;;;;;;;18.14;75.83;98969.88;5057496;28;20021;-67
2021/08/21 06:09:19;;;;;;;4.75;1.95;;;;;;;18.82;73.83;99319.69;5059162;28;20047;-67
2021/08/21 06:11:45;;;;;;;2.95;1.95;;;;;;;19.05;72.33;99308.94;5057407;28;20088;-68
2021/08/21 06:14:10;;;;;;;5.60;1.85;;;;;;;19.34;71.41;99187.59;5050088;28;20016;-67
2021/08/21 06:16:36;;;;;;;6.13;2.10;;;;;;;19.39;71.60;99333.25;5049957;28;20028;-67
2021/08/21 06:19:01;;;;;;;2.65;1.98;;;;;;;19.73;71.48;99443.03;5051678;28;20088;-67
2021/08/21 06:21:26;;;;;;;4.03;2.47;;;;;;;20.14;70.08;98963.66;5051721;28;20025;-68
2021/08/21 06:23:52;;;;;;;3.05;2.10;;;;;;;20.53;69.62;98792.22;5048805;28;20211;-67
2021/08/21 06:26:18;;;;;;;4.97;2.10;;;;;;;21.07;67.83;99145.03;5052988;28;20048;-67
2021/08/21 06:28:43;;;;;;;5.18;2.40;;;;;;;21.01;67.71;98825.03;5055741;28;20070;-67
2021/08/21 06:31:09;;;;;;;5.75;2.30;;;;;;;21.07;68.99;98816.66;5055969;28;20092;-67
2021/08/21 06:33:35;;;;;;;3.55;2.17;;;;;;;21.72;66.02;98852.03;5046918;28;20032;-67
2021/08/21 06:36:01;;;;;;;5.38;2.60;;;;;;;21.73;67.42;98980.59;5050394;28;20309;-67
2021/08/21 06:38:26;;;;;;;5.38;2.53;;;;;;;22.15;66.43;99379.41;5050647;28;20055;-67
2021/08/21 06:40:52;;;;;;;5.45;2.55;;;;;;;22.64;63.58;99644.16;5048715;28;20293;-67
2021/08/21 06:43:18;;;;;;;3.45;2.40;;;;;;;22.94;62.07;98812.91;5048878;28;20037;-67
2021/08/21 06:45:43;;;;;;;5.05;2.60;;;;;;;23.19;63.24;98802.22;5052906;28;20016;-67
2021/08/21 06:48:09;;;;;;;3.55;2.20;;;;;;;23.40;60.89;98816.94;5054592;28;20025;-67
2021/08/21 06:50:36;;;;;;;5.00;2.40;;;;;;;23.50;60.21;98913.94;5058040;28;20020;-69
2021/08/21 06:53:02;;;;;;;4.13;2.40;;;;;;;23.78;60.41;98779.34;5060180;28;20205;-68
2021/08/21 06:55:28;;;;;;;4.07;2.63;;;;;;;23.88;59.92;99577.19;5065355;28;20087;-68
2021/08/21 06:57:54;;;;;;;6.13;3.03;;;;;;;23.42;61.88;99121.31;5054176;28;20018;-66
2021/08/21 07:00:19;;;;;;;7.63;2.75;;;;;;;23.63;61.93;98662.19;5054403;28;20035;-68
2021/08/21 07:02:45;;;;;;;7.75;3.35;;;;;;;24.00;62.60;99490.44;5054533;28;20044;-67
2021/08/21 07:05:10;;;;;;;4.18;3.00;;;;;;;24.33;61.00;98729.59;5052664;28;20021;-67
2021/08/21 07:07:36;;;;;;;10.88;3.20;;;;;;;24.69;59.43;98701.84;5056391;28;20017;-67
2021/08/21 07:10:04;;;;;;;4.47;2.75;;;;;;;25.41;58.43;100304.66;5050373;28;20220;-68
2021/08/21 07:12:29;;;;;;;5.88;3.30;;;;;;;25.23;57.34;99056.84;5048871;28;20423;-68
2021/08/21 07:14:54;;;;;;;5.38;3.38;;;;;;;25.71;58.46;98884.38;5049443;28;20026;-68
2021/08/21 07:17:20;;;;;;;5.88;3.10;;;;;;;25.62;57.58;98801.53;5053638;28;20025;-67
2021/08/21 07:19:45;;;;;;;5.65;3.30;;;;;;;25.67;57.52;99222.63;5047430;28;20102;-67
2021/08/21 07:22:11;;;;;;;6.90;3.80;;;;;;;25.91;55.05;98763.19;5058340;28;20045;-67
2021/08/21 07:24:36;;;;;;;8.15;3.20;;;;;;;26.12;55.84;98736.38;5050333;28;20052;-67
2021/08/21 07:27:02;;;;;;;5.55;3.20;;;;;;;26.57;53.69;98751.50;5050962;28;20078;-67
2021/08/21 07:29:28;;;;;;;6.40;3.28;;;;;;;26.36;54.26;98797.34;5049332;28;20032;-68
2021/08/21 07:31:54;;;;;;;4.15;2.90;;;;;;;26.60;54.96;98759.38;5050275;28;20082;-68
2021/08/21 07:34:19;;;;;;;7.60;3.10;;;;;;;26.98;53.93;98763.34;5052605;28;20024;-67
2021/08/21 07:36:45;;;;;;;6.97;3.17;;;;;;;27.12;52.79;98748.69;5053740;28;20216;-68
2021/08/21 07:39:10;;;;;;;5.55;3.35;;;;;;;27.50;53.44;98751.72;5051103;28;20024;-66
2021/08/21 07:41:36;;;;;;;6.35;3.33;;;;;;;27.23;55.81;98740.50;5055127;28;20021;-66
2021/08/21 07:44:02;;;;;;;8.48;3.35;;;;;;;27.82;51.48;98728.13;5050479;28;20343;-66
2021/08/21 07:46:29;;;;;;;8.15;3.38;;;;;;;27.77;52.32;98738.50;5055238;28;20032;-66
2021/08/21 07:48:54;;;;;;;4.43;3.08;;;;;;;28.02;50.24;98740.78;5055378;28;20029;-66
2021/08/21 07:51:19;;;;;;;5.05;3.35;;;;;;;27.89;52.64;98734.75;5048291;28;20028;-66
2021/08/21 07:53:45;;;;;;;3.88;2.92;;;;;;;27.82;50.74;98732.69;5063049;28;20020;-66
2021/08/21 07:56:10;;;;;;;4.78;3.47;;;;;;;28.58;50.39;98722.22;5059418;28;20088;-66
2021/08/21 07:58:36;;;;;;;9.00;3.20;;;;;;;28.38;50.92;98721.25;5044623;28;20017;-66
2021/08/21 08:01:02;;;;;;;8.52;3.25;;;;;;;28.38;48.62;98718.53;5051585;28;20037;-66
2021/08/21 08:03:28;;;;;;;6.13;3.50;;;;;;;28.49;49.39;98731.16;5052823;28;20052;-66
2021/08/21 08:05:53;;;;;;;5.57;3.63;;;;;;;28.26;50.11;98733.22;5053904;28;20078;-66
2021/08/21 08:08:20;;;;;;;8.20;3.25;;;;;;;28.98;50.18;98741.94;5053398;28;20025;-66
2021/08/21 08:10:45;;;;;;;7.05;3.53;;;;;;;28.80;49.71;98735.50;5052565;28;20084;-67
2021/08/21 08:13:11;;;;;;;6.82;3.10;;;;;;;29.04;47.70;98736.84;5059362;28;20053;-68
2021/08/21 08:15:36;;;;;;;6.43;3.15;;;;;;;29.50;47.51;98740.66;5055625;28;20434;-67
2021/08/21 08:18:02;;;;;;;7.53;3.30;;;;;;;29.27;47.59;98732.81;5055105;28;20016;-67
2021/08/21 08:20:27;;;;;;;6.80;3.40;;;;;;;29.35;49.07;98728.56;5058765;28;20021;-67
2021/08/21 08:22:54;;;;;;;5.88;3.47;;;;;;;29.56;47.62;98723.81;5052035;28;20029;-66
2021/08/21 08:25:19;;;;;;;7.40;2.78;;;;;;;29.64;46.39;98713.13;5056853;28;20033;-66
2021/08/21 08:27:46;;;;;;;8.77;3.50;;;;;;;29.52;47.23;98719.69;5049141;28;20029;-66
2021/08/21 08:30:12;;;;;;;5.03;3.30;;;;;;;29.11;47.66;98713.56;5057921;28;20024;-66
2021/08/21 08:32:38;;;;;;;5.57;3.35;;;;;;;29.51;47.46;98720.69;5055466;28;20339;-66
2021/08/21 08:35:04;;;;;;;6.38;3.63;;;;;;;29.48;47.32;98712.84;5056119;28;20025;-66
2021/08/21 08:37:29;;;;;;;8.57;3.50;;;;;;;29.93;46.59;98716.59;5049908;28;20024;-66
2021/08/21 08:39:55;;;;;;;6.70;3.47;;;;;;;29.08;46.60;98705.72;5049193;28;20032;-66
2021/08/21 08:42:21;;;;;;;4.70;3.17;;;;;;;28.29;47.06;98689.63;5051844;28;20080;-65
2021/08/21 08:44:47;;;;;;;6.15;3.55;;;;;;;28.10;47.63;98689.56;5061510;28;20350;-65
2021/08/21 08:47:16;;;;;;;4.18;3.08;;;;;;;29.45;47.18;98710.41;5062968;28;20025;-65
2021/08/21 08:49:45;;;;;;;5.43;3.45;;;;;;;29.82;43.94;98701.34;5055278;28;20025;-65
2021/08/21 08:52:10;;;;;;;8.88;3.40;;;;;;;29.82;45.07;98700.50;5056320;28;20048;-65
2021/08/21 08:54:36;;;;;;;5.43;3.35;;;;;;;30.50;42.90;98703.63;5049724;28;20026;-66
2021/08/21 08:57:01;;;;;;;6.43;3.30;;;;;;;31.03;42.55;98700.97;5043430;28;20021;-66
2021/08/21 08:59:28;;;;;;;7.57;3.90;;;;;;;30.08;43.14;98686.09;5043763;28;20217;-66
2021/08/21 09:01:53;;;;;;;5.88;4.10;;;;;;;30.68;43.16;98695.50;5045259;28;20061;-66
2021/08/21 09:04:24;;;;;;;7.20;3.70;;;;;;;31.02;43.88;98696.56;5047432;28;20333;-66
2021/08/21 09:06:50;;;;;;;11.17;3.80;;;;;;;31.37;40.92;98693.84;5047361;28;20021;-66
2021/08/21 09:09:21;;;;;;;7.35;3.75;;;;;;;31.43;41.85;98682.31;5054815;28;20027;-66
2021/08/21 09:11:51;;;;;;;6.93;3.90;;;;;;;31.07;41.38;98692.34;5067187;28;20033;-66
2021/08/21 09:14:21;;;;;;;10.82;3.90;;;;;;;31.07;42.75;98688.81;5067144;28;20025;-66
2021/08/21 09:16:48;;;;;;;8.18;3.75;;;;;;;30.31;41.99;98681.16;5067112;28;20020;-66
2021/08/21 09:19:23;;;;;;;6.82;3.70;;;;;;;30.12;44.93;98675.81;5066979;28;20084;-66
2021/08/21 09:22:06;;;;;;;7.25;4.07;;;;;;;30.20;43.93;98678.63;5066996;28;20056;-66
2021/08/21 09:24:33;;;;;;;6.45;3.92;;;;;;;30.96;41.31;98683.59;5066951;28;20382;-66
2021/08/21 09:27:25;;;;;;;12.07;3.90;;;;;;;31.10;41.44;98674.91;5060162;28;20017;-66
2021/08/21 09:30:08;;;;;;;7.18;3.72;;;;;;;31.26;43.09;98680.47;5046866;28;20277;-66
2021/08/21 09:32:34;;;;;;;10.23;3.63;;;;;;;31.26;39.93;98669.59;5047064;28;20340;-66
2021/08/21 09:35:08;;;;;;;6.38;3.67;;;;;;;30.46;40.52;98674.19;5046793;28;20036;-66
2021/08/21 09:37:50;;;;;;;9.98;4.15;;;;;;;30.10;43.75;98677.81;5046712;28;20021;-66
2021/08/21 09:40:36;;;;;;;6.47;3.70;;;;;;;30.49;41.31;98682.03;5046727;28;20037;-66
2021/08/21 09:43:04;;;;;;;6.68;4.15;;;;;;;31.14;40.83;98670.84;5047779;28;20343;-66
2021/08/21 09:45:30;;;;;;;7.32;3.78;;;;;;;31.48;41.72;98668.25;5046601;28;20313;-66
2021/08/21 09:48:04;;;;;;;5.30;3.60;;;;;;;31.66;39.73;98672.63;5046780;28;20018;-66
2021/08/21 09:50:38;;;;;;;7.50;4.10;;;;;;;31.86;42.38;98668.69;5061488;28;20020;-66
2021/08/21 09:53:06;;;;;;;10.07;3.95;;;;;;;31.59;40.53;98659.81;5052323;28;20226;-66
2021/08/21 09:55:32;;;;;;;7.95;4.10;;;;;;;30.48;40.52;98661.31;5046655;28;20028;-66
2021/08/21 09:58:08;;;;;;;8.10;4.20;;;;;;;30.85;42.41;98659.38;5046262;28;20205;-66
2021/08/21 10:00:37;;;;;;;10.30;5.00;;;;;;;30.35;41.02;98644.53;5046328;28;20328;-66
2021/08/21 10:03:04;;;;;;;11.23;4.63;;;;;;;30.18;44.23;98648.09;5058928;28;20037;-66
2021/08/21 10:05:30;;;;;;;8.77;4.25;;;;;;;31.25;41.75;98651.53;5065974;28;20079;-65
2021/08/21 10:08:02;;;;;;;8.77;4.18;;;;;;;31.32;43.60;98644.50;5066184;28;20016;-65
2021/08/21 10:10:38;;;;;;;8.52;4.30;;;;;;;31.59;42.23;98654.38;5066369;28;20032;-65
2021/08/21 10:13:10;;;;;;;6.28;3.90;;;;;;;31.40;40.78;98657.28;5060499;28;20193;-65
2021/08/21 10:15:41;;;;;;;6.50;3.83;;;;;;;31.49;42.17;98659.94;5065990;28;20028;-65
2021/08/21 10:18:08;;;;;;;6.43;4.50;;;;;;;31.21;42.72;98658.31;5065919;28;20324;-65
2021/08/21 10:20:34;;;;;;;5.40;3.80;;;;;;;31.35;41.73;98679.53;5065916;28;20033;-65
2021/08/21 10:23:13;;;;;;;5.72;4.15;;;;;;;30.71;44.28;98679.75;5053531;28;20336;-65
2021/08/21 10:25:43;;;;;;;8.95;4.28;;;;;;;30.25;41.71;98676.34;5045887;28;20022;-65
2021/08/21 10:28:11;;;;;;;8.07;4.35;;;;;;;30.04;43.77;98662.13;5044660;28;20033;-65
2021/08/21 10:30:48;;;;;;;8.73;4.28;;;;;;;29.90;43.02;98652.63;5044698;28;20045;-65
2021/08/21 10:33:14;;;;;;;7.88;4.47;;;;;;;30.34;44.01;98664.56;5046941;28;20032;-65
2021/08/21 10:35:40;;;;;;;9.52;4.20;;;;;;;30.77;41.50;98656.56;5045725;28;20049;-65
2021/08/21 10:38:28;;;;;;;9.55;4.63;;;;;;;30.54;42.22;98656.16;5045543;28;20028;-65
2021/08/21 10:40:58;;;;;;;7.60;4.38;;;;;;;30.52;43.49;98646.41;5045472;28;20088;-65
2021/08/21 10:43:54;;;;;;;7.55;4.82;;;;;;;30.42;41.52;98645.63;5063695;28;20025;-65
2021/08/21 10:46:31;;;;;;;6.88;4.05;;;;;;;30.60;42.41;98649.22;5065160;28;20031;-65
2021/08/21 10:49:05;;;;;;;6.63;3.97;;;;;;;30.54;42.80;98638.97;5065408;28;20033;-65
2021/08/21 10:51:36;;;;;;;7.50;4.20;;;;;;;30.13;42.64;98634.06;5062317;28;20024;-65
2021/08/21 10:54:24;;;;;;;10.32;4.60;;;;;;;29.85;44.55;98629.63;5045408;28;20029;-65
2021/08/21 10:56:51;;;;;;;7.72;4.28;;;;;;;30.49;45.66;98642.16;5044774;28;20029;-65
2021/08/21 10:59:43;;;;;;;7.78;3.90;;;;;;;30.59;43.51;98636.66;5045137;28;20252;-65
2021/08/21 11:02:31;;;;;;;;;;;;;;;30.84;44.08;98649.47;5047247;28;20033;-65
2021/08/21 11:04:58;;;;;;;11.80;4.55;;;;;;;30.94;42.89;98631.25;5050301;28;19905;-65
2021/08/21 11:07:30;;;;;;;7.90;4.72;;;;;;;30.87;40.57;98624.72;5065011;28;20320;-65
2021/08/21 11:10:32;;;;;;;8.90;4.30;;;;;;;30.83;42.99;98628.75;5065191;28;20027;-65
2021/08/21 11:12:57;;;;;;;;;;;;;;;31.05;42.84;98633.72;5060642;28;20040;-65
2021/08/21 11:15:30;;;;;;;10.18;4.72;;;;;;;31.18;43.74;98624.16;5064569;28;19971;-65
2021/08/21 11:17:56;;;;;;;8.13;4.57;;;;;;;30.58;41.51;98613.19;5064714;28;20059;-65
2021/08/21 11:20:32;;;;;;;7.38;4.50;;;;;;;31.00;40.93;98615.16;5064752;28;20084;-65
2021/08/21 11:23:06;;;;;;;8.10;4.35;;;;;;;30.93;42.69;98614.09;5050823;28;20021;-65
2021/08/21 11:25:40;;;;;;;8.52;4.50;;;;;;;30.82;43.99;98616.19;5044733;28;20029;-65
2021/08/21 11:28:13;;;;;;;8.68;4.40;;;;;;;30.86;42.30;98618.44;5044658;28;20022;-65
2021/08/21 11:30:40;;;;;;;7.68;4.43;;;;;;;30.57;44.42;98611.50;5051156;28;20021;-65
2021/08/21 11:33:08;;;;;;;9.27;4.40;;;;;;;29.78;46.03;98609.53;5049800;28;20021;-65
2021/08/21 11:35:48;;;;;;;6.90;4.43;;;;;;;30.19;43.73;98606.34;5048154;28;20067;-65